createdAt,value
2022-08-19T00:02:01.147Z,20.52
2022-08-19T00:04:31.900Z,20.48
2022-08-19T00:07:01.875Z,20.48
2022-08-19T00:09:30.935Z,20.48
2022-08-19T00:12:00.044Z,20.48
2022-08-19T00:14:31.259Z,20.51
2022-08-19T00:17:01.568Z,20.48
2022-08-19T00:19:30.376Z,20.45
2022-08-19T00:21:58.906Z,20.44
2022-08-19T00:24:29.746Z,20.45
2022-08-19T00:27:24.840Z,20.41
2022-08-19T00:29:47.044Z,20.39
2022-08-19T00:32:23.099Z,20.38
2022-08-19T00:34:53.814Z,20.36
2022-08-19T00:37:23.712Z,20.35
2022-08-19T00:39:53.195Z,20.27
2022-08-19T00:42:23.070Z,20.25
2022-08-19T00:44:52.397Z,20.16
2022-08-19T00:47:20.902Z,20.24
2022-08-19T00:49:54.210Z,20.24
2022-08-19T00:52:29.928Z,20.24
2022-08-19T00:54:59.671Z,20.27
2022-08-19T00:57:32.909Z,20.29
2022-08-19T01:00:03.967Z,20.29
2022-08-19T01:02:34.431Z,20.33
2022-08-19T01:05:07.685Z,20.33
2022-08-19T01:07:38.263Z,20.29
2022-08-19T01:10:09.666Z,20.29
2022-08-19T01:12:38.769Z,20.28
2022-08-19T01:15:09.435Z,20.28
2022-08-19T01:17:40.797Z,20.28
2022-08-19T01:20:13.414Z,20.25
2022-08-19T01:22:47.433Z,20.26
2022-08-19T01:25:17.042Z,20.28
2022-08-19T01:27:50.051Z,20.30
2022-08-19T01:30:25.425Z,20.24
2022-08-19T01:32:54.798Z,20.23
2022-08-19T01:35:25.368Z,20.24
2022-08-19T01:37:57.103Z,20.26
2022-08-19T01:40:28.597Z,20.29
2022-08-19T01:42:57.472Z,20.29
2022-08-19T01:45:28.630Z,20.28
2022-08-19T01:48:01.619Z,20.20
2022-08-19T01:50:31.815Z,20.20
2022-08-19T01:53:07.858Z,20.20
2022-08-19T01:55:41.030Z,20.22
2022-08-19T01:58:14.641Z,20.24
2022-08-19T02:00:44.113Z,20.26
2022-08-19T02:03:12.576Z,20.25
2022-08-19T02:05:41.242Z,20.23
2022-08-19T02:08:11.282Z,20.25
2022-08-19T02:10:42.697Z,20.19
2022-08-19T02:13:11.128Z,20.11
2022-08-19T02:15:39.978Z,20.05
2022-08-19T02:18:09.427Z,20.01
2022-08-19T02:20:38.791Z,19.94
2022-08-19T02:23:13.947Z,19.94
2022-08-19T02:25:49.023Z,19.96
2022-08-19T02:28:18.948Z,19.91
2022-08-19T02:30:48.725Z,19.86
2022-08-19T02:33:17.406Z,19.84
2022-08-19T02:35:46.630Z,19.90
2022-08-19T02:38:26.658Z,19.95
2022-08-19T02:40:58.463Z,19.97
2022-08-19T02:43:28.535Z,19.90
2022-08-19T02:45:58.080Z,19.85
2022-08-19T02:48:27.769Z,19.84
2022-08-19T02:50:57.008Z,19.83
2022-08-19T02:53:28.236Z,19.84
2022-08-19T02:55:58.131Z,19.82
2022-08-19T02:58:27.669Z,19.78
2022-08-19T03:00:58.261Z,19.79
2022-08-19T03:03:27.092Z,19.81
2022-08-19T03:06:05.914Z,19.80
2022-08-19T03:08:34.162Z,19.83
2022-08-19T03:11:03.950Z,19.84
2022-08-19T03:13:32.299Z,19.86
2022-08-19T03:16:00.738Z,19.89
2022-08-19T03:18:29.180Z,19.87
2022-08-19T03:20:58.257Z,19.85
2022-08-19T03:23:26.563Z,19.87
2022-08-19T03:25:58.334Z,19.85
2022-08-19T03:28:51.530Z,19.84
2022-08-19T03:31:43.351Z,19.85
2022-08-19T03:34:18.325Z,19.85
2022-08-19T03:36:47.099Z,19.86
2022-08-19T03:39:16.097Z,19.89
2022-08-19T03:41:48.443Z,19.90
2022-08-19T03:44:21.839Z,19.93
2022-08-19T03:46:51.937Z,19.97
2022-08-19T03:49:21.489Z,19.94
2022-08-19T03:51:56.783Z,19.88
2022-08-19T03:54:27.591Z,19.92
2022-08-19T03:56:57.792Z,19.91
2022-08-19T03:59:30.860Z,19.93
2022-08-19T04:02:02.270Z,19.95
2022-08-19T04:04:32.018Z,19.97
2022-08-19T04:07:00.856Z,19.94
2022-08-19T04:09:29.209Z,19.91
2022-08-19T04:11:59.986Z,19.93
2022-08-19T04:14:32.155Z,19.93
2022-08-19T04:17:02.279Z,19.94
2022-08-19T04:19:31.882Z,19.94
2022-08-19T04:22:00.762Z,19.96
2022-08-19T04:24:29.284Z,19.99
2022-08-19T04:26:57.547Z,19.96
2022-08-19T04:29:28.053Z,19.94
2022-08-19T04:31:59.616Z,19.98
2022-08-19T04:34:30.658Z,19.94
2022-08-19T04:37:00.274Z,19.99
2022-08-19T04:39:44.848Z,19.99
2022-08-19T04:42:31.133Z,19.99
2022-08-19T04:45:00.675Z,20.00
2022-08-19T04:47:49.435Z,20.02
2022-08-19T04:50:23.617Z,20.02
2022-08-19T04:52:54.438Z,20.02
2022-08-19T04:55:22.944Z,20.00
2022-08-19T04:57:51.763Z,20.02
2022-08-19T05:00:20.087Z,20.05
2022-08-19T05:02:50.384Z,20.02
2022-08-19T05:05:19.006Z,19.99
2022-08-19T05:07:47.237Z,19.92
2022-08-19T05:10:15.518Z,19.90
2022-08-19T05:12:43.776Z,19.89
2022-08-19T05:15:12.714Z,19.88
2022-08-19T05:18:01.344Z,19.86
2022-08-19T05:20:48.592Z,19.76
2022-08-19T05:23:21.851Z,19.74
2022-08-19T05:25:51.403Z,19.79
2022-08-19T05:28:20.573Z,19.82
2022-08-19T05:30:49.176Z,19.78
2022-08-19T05:33:17.384Z,19.79
2022-08-19T05:35:47.378Z,19.76
2022-08-19T05:38:15.819Z,19.77
2022-08-19T05:40:47.047Z,19.79
2022-08-19T05:43:17.614Z,19.85
2022-08-19T05:45:46.307Z,19.83
2022-08-19T05:48:21.510Z,19.83
2022-08-19T05:50:51.959Z,19.82
2022-08-19T05:53:20.759Z,19.81
2022-08-19T05:55:48.989Z,19.78
2022-08-19T05:58:18.333Z,19.78
2022-08-19T06:00:53.673Z,19.81
2022-08-19T06:03:22.251Z,19.84
2022-08-19T06:05:52.333Z,19.88
2022-08-19T06:08:34.448Z,19.87
2022-08-19T06:11:17.370Z,19.71
2022-08-19T06:13:48.242Z,19.87
2022-08-19T06:16:20.667Z,19.91
2022-08-19T06:18:49.461Z,19.92
2022-08-19T06:21:19.837Z,19.95
2022-08-19T06:23:48.404Z,19.95
2022-08-19T06:26:18.364Z,20.01
2022-08-19T06:28:47.616Z,20.06
2022-08-19T06:31:17.239Z,20.02
2022-08-19T06:33:47.110Z,20.00
2022-08-19T06:36:21.617Z,19.95
2022-08-19T06:38:53.478Z,19.96
2022-08-19T06:41:22.158Z,19.99
2022-08-19T06:43:54.065Z,20.01
2022-08-19T06:46:24.848Z,20.03
2022-08-19T06:48:54.451Z,20.03
2022-08-19T06:51:25.335Z,20.08
2022-08-19T06:53:57.888Z,20.07
2022-08-19T06:56:34.768Z,20.12
2022-08-19T06:59:04.715Z,20.10
2022-08-19T07:01:36.487Z,20.08
2022-08-19T07:04:05.442Z,20.08
2022-08-19T07:06:44.189Z,20.01
2022-08-19T07:09:18.396Z,20.04
2022-08-19T07:11:50.293Z,20.04
2022-08-19T07:14:21.239Z,19.93
2022-08-19T07:16:51.536Z,20.03
2022-08-19T07:19:20.945Z,20.02
2022-08-19T07:21:53.835Z,20.08
2022-08-19T07:24:25.601Z,20.24
2022-08-19T07:26:55.765Z,20.31
2022-08-19T07:29:28.388Z,20.36
2022-08-19T07:32:00.090Z,20.36
2022-08-19T07:34:30.180Z,20.17
2022-08-19T07:37:01.139Z,20.35
2022-08-19T07:39:31.279Z,20.34
2022-08-19T07:42:01.717Z,20.34
2022-08-19T07:44:30.501Z,20.28
2022-08-19T07:47:01.243Z,20.31
2022-08-19T07:49:29.759Z,20.30
2022-08-19T07:52:03.269Z,20.41
2022-08-19T07:54:35.518Z,20.50
2022-08-19T07:57:03.892Z,20.27
2022-08-19T07:59:33.035Z,20.39
2022-08-19T08:02:02.104Z,20.43
2022-08-19T08:04:49.915Z,20.49
2022-08-19T08:07:36.901Z,20.49
2022-08-19T08:10:20.709Z,20.53
2022-08-19T08:13:08.757Z,20.73
2022-08-19T08:15:43.045Z,20.76
2022-08-19T08:18:13.085Z,20.75
2022-08-19T08:20:43.990Z,20.69
2022-08-19T08:23:27.418Z,20.70
2022-08-19T08:25:58.087Z,20.73
2022-08-19T08:28:30.754Z,20.67
2022-08-19T08:31:00.178Z,20.57
2022-08-19T08:33:33.711Z,20.57
2022-08-19T08:36:03.942Z,20.60
2022-08-19T08:38:39.732Z,20.59
2022-08-19T08:41:20.549Z,20.50
2022-08-19T08:43:53.190Z,20.52
2022-08-19T08:46:30.380Z,20.46
2022-08-19T08:49:08.451Z,20.51
2022-08-19T08:54:22.618Z,20.56
2022-08-19T08:56:53.740Z,20.57
2022-08-19T08:59:28.651Z,20.57
2022-08-19T09:01:57.903Z,20.58
2022-08-19T09:04:26.363Z,20.56
2022-08-19T09:07:18.703Z,20.53
2022-08-19T09:10:04.484Z,20.57
2022-08-19T09:12:44.398Z,20.74
2022-08-19T09:15:17.266Z,20.96
2022-08-19T09:17:45.872Z,21.08
2022-08-19T09:20:22.565Z,21.07
2022-08-19T09:22:51.733Z,20.70
2022-08-19T09:25:27.175Z,20.70
2022-08-19T09:28:02.399Z,20.74
2022-08-19T09:30:35.068Z,20.79
2022-08-19T09:33:03.521Z,20.92
2022-08-19T09:35:32.642Z,21.02
2022-08-19T09:38:19.345Z,21.25
2022-08-19T09:40:50.137Z,21.44
2022-08-19T09:43:33.096Z,21.49
2022-08-19T09:46:02.797Z,21.75
2022-08-19T09:48:31.151Z,22.14
2022-08-19T09:51:05.756Z,22.71
2022-08-19T09:53:34.161Z,23.29
2022-08-19T09:56:04.315Z,23.62
2022-08-19T09:58:33.974Z,23.75
2022-08-19T10:01:04.137Z,23.77
2022-08-19T10:03:34.723Z,23.53
2022-08-19T10:06:05.977Z,23.34
2022-08-19T10:08:49.973Z,23.15
2022-08-19T10:11:27.859Z,23.19
2022-08-19T10:14:06.872Z,23.53
2022-08-19T10:16:39.549Z,23.96
2022-08-19T10:19:08.362Z,24.06
2022-08-19T10:21:36.959Z,23.96
2022-08-19T10:24:09.518Z,23.81
2022-08-19T10:26:43.050Z,23.58
2022-08-19T10:29:12.804Z,23.42
2022-08-19T10:31:58.795Z,23.35
2022-08-19T10:34:29.642Z,23.26
2022-08-19T10:37:01.258Z,23.25
2022-08-19T10:39:31.353Z,23.14
2022-08-19T10:42:02.286Z,22.98
2022-08-19T10:44:32.130Z,22.78
2022-08-19T10:47:01.348Z,22.73
2022-08-19T10:49:29.608Z,22.64
2022-08-19T10:52:18.765Z,22.60
2022-08-19T10:55:08.511Z,22.62
2022-08-19T10:58:01.361Z,22.63
2022-08-19T11:00:27.872Z,22.52
2022-08-19T11:02:56.902Z,22.76
2022-08-19T11:05:25.369Z,22.98
2022-08-19T11:07:53.795Z,23.01
2022-08-19T11:10:23.051Z,23.39
2022-08-19T11:12:58.733Z,23.77
2022-08-19T11:15:35.974Z,24.29
2022-08-19T11:18:27.152Z,24.59
2022-08-19T11:21:14.340Z,24.44
2022-08-19T11:23:49.020Z,24.57
2022-08-19T11:26:32.310Z,24.60
2022-08-19T11:29:10.837Z,24.54
2022-08-19T11:31:50.202Z,24.65
2022-08-19T11:34:39.266Z,24.87
2022-08-19T11:37:11.151Z,25.21
2022-08-19T11:39:53.213Z,25.51
2022-08-19T11:42:44.103Z,25.82
2022-08-19T11:45:19.611Z,25.94
2022-08-19T11:47:48.615Z,25.94
2022-08-19T11:50:17.313Z,26.09
2022-08-19T11:52:46.306Z,26.31
2022-08-19T11:55:15.678Z,26.70
2022-08-19T11:57:45.821Z,27.12
2022-08-19T12:00:16.667Z,27.33
2022-08-19T12:02:45.002Z,27.29
2022-08-19T12:05:13.389Z,27.22
2022-08-19T12:07:44.821Z,27.24
2022-08-19T12:10:13.250Z,27.13
2022-08-19T12:12:43.719Z,27.17
2022-08-19T12:15:13.210Z,27.21
2022-08-19T12:17:43.796Z,27.16
2022-08-19T12:20:14.329Z,27.01
2022-08-19T12:22:43.267Z,26.90
2022-08-19T12:25:13.284Z,26.68
2022-08-19T12:27:42.853Z,26.28
2022-08-19T12:30:15.984Z,26.15
2022-08-19T12:32:45.979Z,26.35
2022-08-19T12:35:14.348Z,26.44
2022-08-19T12:37:45.376Z,26.39
2022-08-19T12:40:26.186Z,26.19
2022-08-19T12:42:55.237Z,26.10
2022-08-19T12:45:23.798Z,26.30
2022-08-19T12:47:54.940Z,26.54
2022-08-19T12:50:23.979Z,26.78
2022-08-19T12:52:52.495Z,26.95
2022-08-19T12:55:21.040Z,27.17
2022-08-19T12:57:49.642Z,27.33
2022-08-19T13:00:21.844Z,27.31
2022-08-19T13:02:55.864Z,27.34
2022-08-19T13:05:28.155Z,27.14
2022-08-19T13:07:58.038Z,26.99
2022-08-19T13:10:29.308Z,26.97
2022-08-19T13:13:00.591Z,27.03
2022-08-19T13:15:29.598Z,27.08
2022-08-19T13:18:00.055Z,27.23
2022-08-19T13:20:28.506Z,27.34
2022-08-19T13:22:58.274Z,27.29
2022-08-19T13:25:27.693Z,27.33
2022-08-19T13:27:56.210Z,27.23
2022-08-19T13:30:42.770Z,27.19
2022-08-19T13:33:16.662Z,27.19
2022-08-19T13:35:49.611Z,27.23
2022-08-19T13:38:19.705Z,27.21
2022-08-19T13:40:48.518Z,27.19
2022-08-19T13:43:23.318Z,27.12
2022-08-19T13:45:54.912Z,27.09
2022-08-19T13:48:26.295Z,26.91
2022-08-19T13:50:55.280Z,26.73
2022-08-19T13:53:24.181Z,26.69
2022-08-19T13:55:54.691Z,26.78
2022-08-19T13:58:23.329Z,26.81
2022-08-19T14:00:51.586Z,26.69
2022-08-19T14:03:20.139Z,26.65
2022-08-19T14:05:49.851Z,26.57
2022-08-19T14:08:18.189Z,26.60
2022-08-19T14:10:46.590Z,26.64
2022-08-19T14:13:17.441Z,26.81
2022-08-19T14:15:46.271Z,26.78
2022-08-19T14:18:14.486Z,26.77
2022-08-19T14:20:43.800Z,26.80
2022-08-19T14:23:14.834Z,26.68
2022-08-19T14:25:43.550Z,26.60
2022-08-19T14:28:11.978Z,26.57
2022-08-19T14:30:40.569Z,26.53
2022-08-19T14:33:09.867Z,26.34
2022-08-19T14:35:38.920Z,26.30
2022-08-19T14:38:08.316Z,26.28
2022-08-19T14:40:38.020Z,26.06
2022-08-19T14:43:06.564Z,25.96
2022-08-19T14:45:37.448Z,25.91
2022-08-19T14:48:05.820Z,25.97
2022-08-19T14:50:35.022Z,26.13
2022-08-19T14:53:11.190Z,26.24
2022-08-19T14:55:45.601Z,26.29
2022-08-19T14:58:29.312Z,26.17
2022-08-19T15:01:00.997Z,26.14
2022-08-19T15:03:30.277Z,26.17
2022-08-19T15:05:59.043Z,26.05
2022-08-19T15:08:29.561Z,25.79
2022-08-19T15:11:00.326Z,25.82
2022-08-19T15:13:31.175Z,25.96
2022-08-19T15:15:59.636Z,25.98
2022-08-19T15:18:28.241Z,25.82
2022-08-19T15:20:57.875Z,25.81
2022-08-19T15:23:26.168Z,25.87
2022-08-19T15:25:56.529Z,25.67
2022-08-19T15:28:28.346Z,25.33
2022-08-19T15:30:56.570Z,25.08
2022-08-19T15:33:25.004Z,25.12
2022-08-19T15:35:54.479Z,25.27
2022-08-19T15:38:23.872Z,25.45
2022-08-19T15:40:52.650Z,25.70
2022-08-19T15:43:22.924Z,25.70
2022-08-19T15:45:52.927Z,25.65
2022-08-19T15:48:21.199Z,25.70
2022-08-19T15:50:49.444Z,25.83
2022-08-19T15:53:17.787Z,25.77
2022-08-19T15:55:48.622Z,25.49
2022-08-19T15:58:34.511Z,25.34
2022-08-19T16:01:23.880Z,25.22
2022-08-19T16:04:14.717Z,24.99
2022-08-19T16:06:46.438Z,24.91
2022-08-19T16:09:15.611Z,24.90
2022-08-19T16:11:46.379Z,24.91
2022-08-19T16:14:15.672Z,25.01
2022-08-19T16:16:47.773Z,25.07
2022-08-19T16:19:18.532Z,24.93
2022-08-19T16:21:49.533Z,24.82
2022-08-19T16:24:20.589Z,24.75
2022-08-19T16:26:49.320Z,24.71
2022-08-19T16:29:27.738Z,24.80
2022-08-19T16:32:06.667Z,24.78
2022-08-19T16:34:35.250Z,24.60
2022-08-19T16:37:03.520Z,24.60
2022-08-19T16:39:32.095Z,24.65
2022-08-19T16:42:01.133Z,24.69
2022-08-19T16:44:30.137Z,24.62
2022-08-19T16:46:59.788Z,24.33
2022-08-19T16:49:52.848Z,24.17
2022-08-19T16:52:21.035Z,24.17
2022-08-19T16:54:49.894Z,24.06
2022-08-19T16:57:19.552Z,24.03
2022-08-19T16:59:49.545Z,24.07
2022-08-19T17:02:19.015Z,24.07
2022-08-19T17:04:58.339Z,24.10
2022-08-19T17:07:28.037Z,23.90
2022-08-19T17:09:57.038Z,23.83
2022-08-19T17:12:31.533Z,23.77
2022-08-19T17:15:01.684Z,23.75
2022-08-19T17:17:30.441Z,23.66
2022-08-19T17:20:00.730Z,23.55
2022-08-19T17:22:29.849Z,23.42
2022-08-19T17:24:58.706Z,23.39
2022-08-19T17:27:31.429Z,23.45
2022-08-19T17:30:02.634Z,23.42
2022-08-19T17:32:33.408Z,23.37
2022-08-19T17:35:04.813Z,23.26
2022-08-19T17:37:35.016Z,23.09
2022-08-19T17:40:04.003Z,22.99
2022-08-19T17:42:32.416Z,22.96
2022-08-19T17:45:00.716Z,22.88
2022-08-19T17:47:31.318Z,22.80
2022-08-19T17:50:00.305Z,22.69
2022-08-19T17:52:30.331Z,22.65
2022-08-19T17:54:58.646Z,22.67
2022-08-19T17:57:26.975Z,22.67
2022-08-19T17:59:55.441Z,22.67
2022-08-19T18:02:25.523Z,22.65
2022-08-19T18:04:54.368Z,22.63
2022-08-19T18:07:22.758Z,22.54
2022-08-19T18:09:54.907Z,22.50
2022-08-19T18:12:26.764Z,22.48
2022-08-19T18:14:56.241Z,22.46
2022-08-19T18:17:26.078Z,22.39
2022-08-19T18:19:54.420Z,22.28
2022-08-19T18:22:26.926Z,22.16
2022-08-19T18:24:57.884Z,22.09
2022-08-19T18:27:27.872Z,22.00
2022-08-19T18:29:59.590Z,21.96
2022-08-19T18:32:28.729Z,21.64
2022-08-19T18:34:57.327Z,21.73
2022-08-19T18:37:27.273Z,21.75
2022-08-19T18:40:14.642Z,21.74
2022-08-19T18:43:02.108Z,21.71
2022-08-19T18:45:47.864Z,21.65
2022-08-19T18:48:33.519Z,21.59
2022-08-19T18:51:03.444Z,21.52
2022-08-19T18:53:35.165Z,21.46
2022-08-19T18:56:05.622Z,21.40
2022-08-19T18:58:35.029Z,21.32
2022-08-19T19:01:11.000Z,21.27
2022-08-19T19:03:42.581Z,21.21
2022-08-19T19:06:11.014Z,21.12
2022-08-19T19:08:41.002Z,21.06
2022-08-19T19:11:11.641Z,20.99
2022-08-19T19:13:41.075Z,20.91
2022-08-19T19:16:11.677Z,20.87
2022-08-19T19:18:40.130Z,20.79
2022-08-19T19:21:09.465Z,20.72
2022-08-19T19:23:40.715Z,20.66
2022-08-19T19:26:10.931Z,20.58
2022-08-19T19:28:43.867Z,20.52
2022-08-19T19:31:14.133Z,20.46
2022-08-19T19:33:43.648Z,20.38
2022-08-19T19:36:14.039Z,20.25
2022-08-19T19:38:48.326Z,20.15
2022-08-19T19:41:19.627Z,20.01
2022-08-19T19:44:04.533Z,19.90
2022-08-19T19:46:38.623Z,19.77
2022-08-19T19:49:08.290Z,19.72
2022-08-19T19:51:38.647Z,19.67
2022-08-19T19:54:07.877Z,19.64
2022-08-19T19:56:36.693Z,19.59
2022-08-19T19:59:06.417Z,19.51
2022-08-19T20:01:35.274Z,19.41
2022-08-19T20:04:04.305Z,19.35
2022-08-19T20:06:34.359Z,19.30
2022-08-19T20:09:11.072Z,19.22
2022-08-19T20:11:44.022Z,19.14
2022-08-19T20:14:17.271Z,19.08
2022-08-19T20:16:47.372Z,19.03
2022-08-19T20:19:18.484Z,18.99
2022-08-19T20:21:51.338Z,18.93
2022-08-19T20:24:24.079Z,18.89
2022-08-19T20:26:53.438Z,18.84
2022-08-19T20:29:39.468Z,18.80
2022-08-19T20:32:11.302Z,18.73
2022-08-19T20:34:41.069Z,18.70
2022-08-19T20:37:10.028Z,18.65
2022-08-19T20:39:38.646Z,18.61
2022-08-19T20:42:07.190Z,18.55
2022-08-19T20:44:37.863Z,18.54
2022-08-19T20:47:06.961Z,18.51
2022-08-19T20:49:35.446Z,18.48
2022-08-19T20:52:05.130Z,18.46
2022-08-19T20:54:34.372Z,18.41
2022-08-19T20:57:03.877Z,18.40
2022-08-19T20:59:32.486Z,18.40
2022-08-19T21:02:02.192Z,18.42
2022-08-19T21:04:30.685Z,18.35
2022-08-19T21:06:58.974Z,18.28
2022-08-19T21:09:28.007Z,18.25
2022-08-19T21:11:57.706Z,18.21
2022-08-19T21:14:26.976Z,18.18
2022-08-19T21:16:55.481Z,18.17
2022-08-19T21:19:25.043Z,18.17
2022-08-19T21:21:54.324Z,18.18
2022-08-19T21:24:26.400Z,18.19
2022-08-19T21:27:00.491Z,18.23
2022-08-19T21:29:28.703Z,18.24
2022-08-19T21:31:56.824Z,18.24
2022-08-19T21:34:26.665Z,18.26
2022-08-19T21:36:54.801Z,18.28
2022-08-19T21:39:23.011Z,18.28
2022-08-19T21:41:51.286Z,18.28
2022-08-19T21:44:19.418Z,18.27
2022-08-19T21:46:50.444Z,18.26
2022-08-19T21:49:19.880Z,18.22
2022-08-19T21:51:49.852Z,18.26
2022-08-19T21:54:18.089Z,18.28
2022-08-19T21:56:47.164Z,18.29
2022-08-19T21:59:17.002Z,18.30
2022-08-19T22:01:50.498Z,18.29
2022-08-19T22:04:22.952Z,18.30
2022-08-19T22:06:55.403Z,18.32
2022-08-19T22:09:23.728Z,18.30
2022-08-19T22:11:52.232Z,18.31
2022-08-19T22:14:20.512Z,18.35
2022-08-19T22:16:48.765Z,18.41
2022-08-19T22:19:17.003Z,18.48
2022-08-19T22:21:45.319Z,18.50
2022-08-19T22:24:15.082Z,18.53
2022-08-19T22:26:43.881Z,18.55
2022-08-19T22:29:13.293Z,18.55
2022-08-19T22:31:45.986Z,18.51
2022-08-19T22:34:23.323Z,18.44
2022-08-19T22:36:51.637Z,18.38
2022-08-19T22:39:21.235Z,18.32
2022-08-19T22:41:49.553Z,18.21
2022-08-19T22:44:17.911Z,18.12
2022-08-19T22:46:46.226Z,18.02
2022-08-19T22:49:14.824Z,17.93
2022-08-19T22:52:00.570Z,17.83
2022-08-19T22:54:30.399Z,17.79
2022-08-19T22:56:58.650Z,17.79
2022-08-19T22:59:27.180Z,17.77
2022-08-19T23:01:55.486Z,17.72
2022-08-19T23:04:24.357Z,17.67
2022-08-19T23:06:52.762Z,17.64
2022-08-19T23:09:23.422Z,17.61
2022-08-19T23:11:53.994Z,17.55
2022-08-19T23:14:22.277Z,17.51
2022-08-19T23:16:51.489Z,17.45
2022-08-19T23:19:22.846Z,17.40
2022-08-19T23:21:52.718Z,17.36
2022-08-19T23:24:21.424Z,17.33
2022-08-19T23:27:07.495Z,17.29
2022-08-19T23:29:54.516Z,17.26
2022-08-19T23:32:25.603Z,17.24
2022-08-19T23:34:56.786Z,17.27
2022-08-19T23:37:25.630Z,17.24
2022-08-19T23:39:53.928Z,17.23
2022-08-19T23:42:22.220Z,17.19
2022-08-19T23:44:52.958Z,17.15
2022-08-19T23:47:22.334Z,17.10
2022-08-19T23:49:50.933Z,17.04
2022-08-19T23:52:19.397Z,17.01
2022-08-19T23:54:47.963Z,16.98
2022-08-19T23:57:16.645Z,16.98
2022-08-19T23:59:45.935Z,16.94
